Weather at Manuel Márquez de León International Airport

Public forecast

Using degrees Celsius for public forecast. Weather courtesy of forecast.io.

Current aviation weather report (METAR) for Manuel Márquez de León International Airport

Retrieved 2020/10/27 02:38 UTC (23 minutes ago):

MMLP 270238Z 17010KT 10SM SKC 25/13 A2985 NOSIG

Aviation forecast (TAF) for Manuel Márquez de León International Airport

Forecast is more than 6 hours old.

Retrieved 2020/10/26 18:54 UTC (8 hours ago):

TAF MMLP 261651Z 2618/2718 04010KT P6SM SKC FM270300 35010KT P6SM SCT020 BECMG 2705/2706 01018KT BKN015 FM271500 02018KT P6SM SCT020